Карточка аэропорта URSS

Внимание!
Информация на этой странице в стадии наполнения.
Если вы не увидели какой-то информации, или заметили неточность - пожалуйста сообщите нам!
Спасибо!
Команда RU-STAFF
Название аэропортаСочи
Название аэропорта (англ.)Sochi
Превышение89 ft. (27.1 m.)
Координаты43°26.634', 39°56.55'
Высота перехода13000 ft
Эшелон переходаQNH>=977hPa: FL150; QNH<977hPa: FL160
Коды ответчика1060-1077
Зона ОрВДРостов-на-Дону РПИ (URRV)
Данные METARURSS 181030Z 12005MPS 9999 NSC 26/09 Q1004 WS ALL RWY R02/010070 R06/////// NOSIG RMK R06/13006G09MPS QFE751
Проноз погоды (TAF)URSS 180756Z 1809/1909 15009G16MPS 9999 BKN100 BECMG 1817/1818 05004G09MPS SCT040CB OVC100 TEMPO 1820/1906 VRB09G14MPS -TSRA SQ SCT006 BKN030CB OVC100 FM190600 25004G09MPS 9999 SCT010 BKN030CB OVC100 TEMPO 1906/1909 VRB06G12MPS -TSRA BKN006 BKN030CB OVC100
NOTAMshow/hide NOTAM
AWOS   TABLE

Информация о ВПП

ВПП Длина ВПП (м.) Покрытие Курс ВПП Частота ILS
062890Цементобетон58111.1
022500Цементобетон22110.5
242890Цементобетон238 
202500Цементобетон202 

Диспетчерские позиции

Позывной Наименование органа УВД Частота
URSS_TWRСочи-Старт121.200
URSS_R_APPСочи-Круг119.700
URSS_GNDСочи-Руление119.000
URSS_DELСочи-Деливери132.700
URSS_APPСочи-Подход124.600
URSSFM1119.000



Спутниковое изображение